Current Conditions
Partly Cloudy
Conditions



Pressure
1012.92 (hPa) - 29.91 (inHG)
Visibility

10.0 (km) - 6.2 (miles)
   Temperature
18  °C
Temperature
16  °C
Dewpoint
88  %
 Humidity
   Wind Speed
13  km/h
7  kts
8  mph
3.6  m/s
   Wind Direction
N
45°
E
90°
135°
S
180°
225°
W
270°
315°
 40°

North East
   Airport Data
EDDR
Saarbr├╝cken Airport
Metar :EDDR 221350Z 04007KT 360V070 9999 FEW007 SCT016TCU 18/16 Q1013 TEMPO SHRA
Tue 22nd June 15:50 pm
   Raw Metar Info
Raw METAR is the most common format in the world for the transmission of observational weather data. It is highly standardized through the International Civil Aviation Organization (ICAO), which allows it to be understood throughout most of the world.
   API Info
Data Provided by
https://www.checkwx.com/weather/EDDR

Aviation Weather providing METAR, TAF, AIRMET, SIGMET and OUTLOOK Weather Reports
   © Info
CSS/SVG/PHP scripts were developed by weather34.com for use in the weather34 template © 2015-2021

Guide Info provided by Metar-Wikipedia